Time;durP1;ratioP1;P1;durP2;ratioP2;P2;SDS_P1;SDS_P2;PMS_P1;PMS_P2;Temp;Humidity;BMP_temperature;BMP_pressure;BME280_temperature;BME280_humidity;BME280_pressure;Samples;Min_cycle;Max_cycle;Signal;HPM_P1;HPM_P2
2022/03/03 00:00:50;;;;;;;25.20;16.27;;;-2.80;99.90;;;;;;5074128;28;20474;-73
2022/03/03 00:03:18;;;;;;;23.20;16.87;;;-2.80;99.90;;;;;;5073243;28;20485;-76
2022/03/03 00:05:46;;;;;;;23.20;16.57;;;-2.80;99.90;;;;;;5073917;28;20455;-77
2022/03/03 00:08:14;;;;;;;24.57;16.03;;;-2.80;99.90;;;;;;5074105;28;20449;-74
2022/03/03 00:10:45;;;;;;;22.53;15.73;;;-2.80;99.90;;;;;;5073584;28;20485;-76
2022/03/03 00:13:13;;;;;;;23.23;16.37;;;-2.80;99.90;;;;;;5074073;28;20474;-75
2022/03/03 00:15:41;;;;;;;19.87;14.30;;;-2.90;99.90;;;;;;5072947;28;20454;-74
2022/03/03 00:18:09;;;;;;;21.50;15.57;;;-2.90;99.90;;;;;;5073738;28;20480;-75
2022/03/03 00:20:37;;;;;;;21.40;15.43;;;-3.00;99.90;;;;;;5073892;28;20467;-76
2022/03/03 00:23:08;;;;;;;23.33;16.27;;;-3.00;99.90;;;;;;5073980;28;20485;-76
2022/03/03 00:25:36;;;;;;;22.27;15.70;;;-3.10;99.90;;;;;;5073581;28;20548;-78
2022/03/03 00:28:06;;;;;;;24.63;15.97;;;-3.10;99.90;;;;;;5073863;28;20473;-75
2022/03/03 00:30:34;;;;;;;23.20;16.87;;;-3.10;99.90;;;;;;5073811;28;20455;-76
2022/03/03 00:33:02;;;;;;;23.53;16.60;;;-3.10;99.90;;;;;;5073633;28;20523;-74
2022/03/03 00:35:30;;;;;;;23.00;16.00;;;-3.20;99.90;;;;;;5073613;28;20477;-76
2022/03/03 00:37:58;;;;;;;22.83;15.80;;;-3.20;99.90;;;;;;5071831;28;20897;-74
2022/03/03 00:40:26;;;;;;;22.47;15.77;;;-3.30;99.90;;;;;;5073107;28;20464;-73
2022/03/03 00:42:54;;;;;;;22.90;16.93;;;-3.30;99.90;;;;;;5073262;28;20571;-75
2022/03/03 00:45:24;;;;;;;23.67;16.80;;;-3.30;99.90;;;;;;5072964;28;20460;-75
2022/03/03 00:47:55;;;;;;;24.37;16.93;;;-3.40;99.90;;;;;;5073619;28;20549;-76
2022/03/03 00:50:23;;;;;;;25.87;16.43;;;-3.40;99.90;;;;;;5072912;28;20456;-73
2022/03/03 00:52:51;;;;;;;24.67;15.30;;;-3.40;99.90;;;;;;5072815;28;20457;-76
2022/03/03 00:55:19;;;;;;;24.33;16.00;;;-3.50;99.90;;;;;;5072844;28;20969;-77
2022/03/03 00:57:47;;;;;;;22.93;16.30;;;-3.50;99.90;;;;;;5073198;28;20450;-74
2022/03/03 01:00:18;;;;;;;28.67;17.10;;;-3.50;99.90;;;;;;5073055;28;20568;-73
2022/03/03 01:02:48;;;;;;;27.50;18.83;;;-3.50;99.90;;;;;;5072619;28;20461;-74
2022/03/03 01:05:17;;;;;;;27.80;17.97;;;-3.50;99.90;;;;;;5073448;28;20484;-77
2022/03/03 01:07:46;;;;;;;27.80;18.20;;;-3.50;99.90;;;;;;5073087;28;20496;-74
2022/03/03 01:10:14;;;;;;;24.93;17.70;;;-3.60;99.90;;;;;;5073184;28;20480;-75
2022/03/03 01:12:42;;;;;;;24.60;17.13;;;-3.60;99.90;;;;;;5073112;28;20500;-74
2022/03/03 01:15:12;;;;;;;26.20;17.60;;;-3.60;99.90;;;;;;5071898;28;20445;-74
2022/03/03 01:17:40;;;;;;;23.13;16.27;;;-3.50;99.90;;;;;;5073020;28;20534;-73
2022/03/03 01:20:11;;;;;;;25.17;17.33;;;-3.60;99.90;;;;;;5072532;28;20533;-74
2022/03/03 01:22:39;;;;;;;23.60;16.90;;;-3.60;99.90;;;;;;5072447;28;20520;-74
2022/03/03 01:25:10;;;;;;;27.10;17.70;;;-3.60;99.90;;;;;;5072224;28;20982;-74
2022/03/03 01:27:38;;;;;;;24.83;15.77;;;-3.60;99.90;;;;;;5072495;28;20548;-75
2022/03/03 01:30:08;;;;;;;24.50;16.57;;;-3.60;99.90;;;;;;5072177;28;20552;-78
2022/03/03 01:32:36;;;;;;;23.97;18.07;;;-3.60;99.90;;;;;;5072371;28;20515;-73
2022/03/03 01:35:05;;;;;;;22.27;16.47;;;-3.60;99.90;;;;;;5072397;28;20483;-73
2022/03/03 01:37:38;;;;;;;27.07;17.73;;;-3.60;99.90;;;;;;5071898;28;20495;-75
2022/03/03 01:40:08;;;;;;;23.93;17.47;;;-3.60;99.90;;;;;;5072471;28;20496;-75
2022/03/03 01:42:36;;;;;;;25.77;17.87;;;-3.60;99.90;;;;;;5072456;28;20484;-75
2022/03/03 01:45:05;;;;;;;23.40;16.83;;;-3.60;99.90;;;;;;5072019;28;20877;-73
2022/03/03 01:47:34;;;;;;;24.43;16.83;;;-3.70;99.90;;;;;;5072520;28;20484;-73
2022/03/03 01:50:04;;;;;;;25.90;17.07;;;-3.70;99.90;;;;;;5071559;28;20609;-74
2022/03/03 01:52:32;;;;;;;24.37;16.83;;;-3.70;99.90;;;;;;5072607;28;20832;-76
2022/03/03 01:55:02;;;;;;;25.43;16.93;;;-3.80;99.90;;;;;;5072847;28;20520;-74
2022/03/03 01:57:32;;;;;;;23.70;16.57;;;-3.80;99.90;;;;;;5071878;28;20463;-76
2022/03/03 02:00:00;;;;;;;23.57;16.60;;;-3.80;99.90;;;;;;5072656;28;20454;-74
2022/03/03 02:02:31;;;;;;;21.90;16.10;;;-3.80;99.90;;;;;;5071512;28;20459;-73
2022/03/03 02:05:00;;;;;;;24.33;16.43;;;-3.90;99.90;;;;;;5071780;28;20529;-74
2022/03/03 02:07:28;;;;;;;25.90;15.87;;;-3.90;99.90;;;;;;5060732;28;20457;-74
2022/03/03 02:09:56;;;;;;;22.87;15.90;;;-3.90;99.90;;;;;;5052521;28;20581;-78
2022/03/03 02:12:25;;;;;;;23.27;16.37;;;-4.00;99.90;;;;;;5052137;28;20545;-76
2022/03/03 02:14:53;;;;;;;23.90;16.80;;;-4.00;99.90;;;;;;5066357;28;20454;-76
2022/03/03 02:17:23;;;;;;;25.97;16.60;;;-4.00;99.90;;;;;;5071433;28;20505;-74
2022/03/03 02:19:52;;;;;;;22.50;16.17;;;-4.10;99.90;;;;;;5071527;28;20459;-76
2022/03/03 02:22:21;;;;;;;24.17;15.77;;;-4.10;99.90;;;;;;5071722;28;20831;-75
2022/03/03 02:24:50;;;;;;;25.50;15.90;;;-4.10;99.90;;;;;;5071409;28;20900;-74
2022/03/03 02:27:21;;;;;;;24.67;16.33;;;-4.20;99.90;;;;;;5071946;28;20865;-73
2022/03/03 02:29:51;;;;;;;24.37;16.07;;;-4.20;99.90;;;;;;5071743;28;20459;-73
2022/03/03 02:32:19;;;;;;;25.60;15.97;;;-4.20;99.90;;;;;;5071404;28;20460;-73
2022/03/03 02:34:50;;;;;;;25.67;16.10;;;-4.20;99.90;;;;;;5071909;28;20877;-73
2022/03/03 02:37:18;;;;;;;21.17;15.63;;;-4.20;99.90;;;;;;5070830;28;20494;-74
2022/03/03 02:39:51;;;;;;;22.73;16.23;;;-4.20;99.90;;;;;;5071614;28;20479;-75
2022/03/03 02:42:19;;;;;;;22.97;15.87;;;-4.30;99.90;;;;;;5071615;28;20563;-76
2022/03/03 02:44:47;;;;;;;21.63;15.53;;;-4.20;99.90;;;;;;5071633;28;20493;-75
2022/03/03 02:47:15;;;;;;;26.00;17.07;;;-4.30;99.90;;;;;;5071164;28;20467;-74
2022/03/03 02:49:43;;;;;;;25.40;16.67;;;-4.30;99.90;;;;;;5072226;28;20454;-74
2022/03/03 02:52:12;;;;;;;24.47;15.63;;;-4.40;99.90;;;;;;5073803;28;20448;-75
2022/03/03 02:54:40;;;;;;;25.00;16.87;;;-4.40;99.90;;;;;;5074541;28;20501;-76
2022/03/03 02:59:55;;;;;;;25.00;17.13;;;-4.40;99.90;;;;;;5088759;28;20491;-73
2022/03/03 03:02:24;;;;;;;27.50;16.97;;;-4.40;99.90;;;;;;5080639;28;20459;-77
2022/03/03 03:04:52;;;;;;;24.33;15.83;;;-4.40;99.90;;;;;;5073979;28;20487;-74
2022/03/03 03:07:20;;;;;;;25.00;16.50;;;-4.40;99.90;;;;;;5055407;28;20455;-76
2022/03/03 03:09:48;;;;;;;27.13;17.67;;;-4.50;99.90;;;;;;5059445;28;20478;-77
2022/03/03 03:12:17;;;;;;;26.73;18.00;;;-4.50;99.90;;;;;;5075365;28;21009;-75
2022/03/03 03:14:46;;;;;;;24.00;16.50;;;-4.50;99.90;;;;;;5075127;28;20456;-74
2022/03/03 03:17:14;;;;;;;26.73;16.70;;;-4.60;99.90;;;;;;5075393;28;20551;-74
2022/03/03 03:19:42;;;;;;;24.07;15.90;;;-4.60;99.90;;;;;;5074844;28;21281;-74
2022/03/03 03:22:10;;;;;;;23.60;15.47;;;-4.70;99.90;;;;;;5075003;28;20483;-75
2022/03/03 03:24:38;;;;;;;25.00;16.90;;;-4.70;99.90;;;;;;5074952;28;20585;-76
2022/03/03 03:27:07;;;;;;;25.50;17.13;;;-4.70;99.90;;;;;;5075226;28;20460;-75
2022/03/03 03:29:36;;;;;;;26.40;17.63;;;-4.70;99.90;;;;;;5074784;28;20481;-77
2022/03/03 03:32:05;;;;;;;22.43;16.90;;;-4.70;99.90;;;;;;5074616;28;20557;-76
2022/03/03 03:34:33;;;;;;;24.70;16.50;;;-4.70;99.90;;;;;;5074609;28;20471;-74
2022/03/03 03:37:01;;;;;;;22.67;16.03;;;-4.70;99.90;;;;;;5074862;28;20555;-75
2022/03/03 03:39:30;;;;;;;25.80;16.80;;;-4.80;99.90;;;;;;5075241;28;20543;-74
2022/03/03 03:41:58;;;;;;;24.60;16.40;;;-4.80;99.90;;;;;;5074493;28;20583;-76
2022/03/03 03:44:26;;;;;;;26.63;16.83;;;-4.70;99.90;;;;;;5074391;28;20453;-74
2022/03/03 03:46:55;;;;;;;21.63;15.60;;;-4.80;99.90;;;;;;5074398;28;20457;-75
2022/03/03 03:49:24;;;;;;;25.73;16.83;;;-4.80;99.90;;;;;;5073837;28;21006;-75
2022/03/03 03:51:52;;;;;;;22.03;15.43;;;-4.80;99.90;;;;;;5074096;28;20454;-76
2022/03/03 03:54:21;;;;;;;23.33;15.53;;;-4.80;99.90;;;;;;5074647;28;20855;-75
2022/03/03 03:56:49;;;;;;;25.40;15.73;;;-4.80;99.90;;;;;;5074306;28;20542;-75
2022/03/03 03:59:17;;;;;;;20.83;15.30;;;-4.80;99.90;;;;;;5073884;28;20463;-77
2022/03/03 04:01:45;;;;;;;25.30;15.80;;;-4.80;99.90;;;;;;5074019;28;20471;-74
2022/03/03 04:04:15;;;;;;;25.43;15.37;;;-4.80;99.90;;;;;;5073890;28;20497;-76
2022/03/03 04:06:43;;;;;;;22.60;15.70;;;-4.80;99.90;;;;;;5074269;28;20525;-74
2022/03/03 04:09:11;;;;;;;22.63;15.90;;;-4.80;99.90;;;;;;5074174;28;20542;-76
2022/03/03 04:11:39;;;;;;;22.27;15.73;;;-4.80;99.90;;;;;;5075088;28;20460;-75
2022/03/03 04:14:07;;;;;;;21.43;14.00;;;-4.80;99.90;;;;;;5075289;28;20925;-74
2022/03/03 04:16:36;;;;;;;21.27;14.60;;;-4.90;99.90;;;;;;5074083;28;20531;-75
2022/03/03 04:19:05;;;;;;;21.40;14.57;;;-4.90;99.90;;;;;;5074303;28;20530;-75
2022/03/03 04:21:34;;;;;;;20.40;14.23;;;-5.00;99.90;;;;;;5073768;28;20828;-76
2022/03/03 04:24:05;;;;;;;18.40;13.73;;;-5.00;99.90;;;;;;5054160;28;20439;-76
2022/03/03 04:26:33;;;;;;;21.33;14.77;;;-5.10;99.90;;;;;;5053733;28;20480;-76
2022/03/03 04:29:02;;;;;;;20.17;13.93;;;-5.10;99.90;;;;;;5054044;28;20477;-73
2022/03/03 04:31:31;;;;;;;20.60;13.53;;;-5.10;99.90;;;;;;5053779;28;20440;-74
2022/03/03 04:33:59;;;;;;;21.77;14.83;;;-5.10;99.90;;;;;;5073193;28;20542;-75
2022/03/03 04:36:27;;;;;;;20.50;14.60;;;-5.10;99.90;;;;;;5074251;28;20567;-74
2022/03/03 04:38:56;;;;;;;20.77;13.80;;;-5.10;99.90;;;;;;5074151;28;20435;-73
2022/03/03 04:41:26;;;;;;;19.90;14.90;;;-5.10;99.90;;;;;;5073710;28;20552;-74
2022/03/03 04:43:54;;;;;;;20.60;14.70;;;-5.10;99.90;;;;;;5073396;28;20505;-76
2022/03/03 04:46:22;;;;;;;21.33;14.83;;;-5.10;99.90;;;;;;5073589;28;20484;-76
2022/03/03 04:48:50;;;;;;;19.97;14.43;;;-5.20;99.90;;;;;;5073658;28;20901;-77
2022/03/03 04:51:18;;;;;;;20.73;13.80;;;-5.20;99.90;;;;;;5073582;28;20888;-76
2022/03/03 04:53:46;;;;;;;21.20;14.67;;;-5.20;99.90;;;;;;5073632;28;20536;-76
2022/03/03 04:56:16;;;;;;;22.03;15.63;;;-5.20;99.90;;;;;;5073162;28;20542;-75
2022/03/03 04:58:44;;;;;;;22.27;14.47;;;-5.20;99.90;;;;;;5073343;28;20518;-75
2022/03/03 05:01:13;;;;;;;22.93;15.13;;;-5.10;99.90;;;;;;5072873;28;20483;-75
2022/03/03 05:03:41;;;;;;;20.60;14.63;;;-5.10;99.90;;;;;;5058496;28;20522;-76
2022/03/03 05:06:09;;;;;;;21.73;15.07;;;-5.10;99.90;;;;;;5053395;28;20479;-76
2022/03/03 05:08:37;;;;;;;22.60;15.00;;;-5.10;99.90;;;;;;5066328;28;20859;-77
2022/03/03 05:11:05;;;;;;;21.43;15.03;;;-5.10;99.90;;;;;;5073234;28;20524;-74
2022/03/03 05:13:35;;;;;;;21.90;14.80;;;-5.20;99.90;;;;;;5072933;28;20524;-76
2022/03/03 05:16:03;;;;;;;22.27;14.73;;;-5.20;99.90;;;;;;5072809;28;20449;-76
2022/03/03 05:18:35;;;;;;;21.30;14.67;;;-5.20;99.90;;;;;;5073315;28;20451;-75
2022/03/03 05:21:03;;;;;;;23.40;14.67;;;-5.20;99.90;;;;;;5071721;28;20966;-73
2022/03/03 05:23:31;;;;;;;18.07;13.60;;;-5.30;99.90;;;;;;5073755;28;20482;-76
2022/03/03 05:25:59;;;;;;;24.90;15.00;;;-5.20;99.90;;;;;;5073085;28;20518;-76
2022/03/03 05:28:27;;;;;;;19.77;14.17;;;-5.30;99.90;;;;;;5073520;28;20902;-75
2022/03/03 05:30:57;;;;;;;20.57;14.97;;;-5.30;99.90;;;;;;5073064;28;20459;-75
2022/03/03 05:33:26;;;;;;;21.83;13.40;;;-5.30;99.90;;;;;;5065837;28;21027;-74
2022/03/03 05:35:59;;;;;;;19.67;13.87;;;-5.30;99.90;;;;;;5054571;28;20469;-74
2022/03/03 05:38:30;;;;;;;21.03;13.53;;;-5.40;99.90;;;;;;5059595;28;20455;-75
2022/03/03 05:40:59;;;;;;;22.70;13.87;;;-5.40;99.90;;;;;;5072713;28;20545;-75
2022/03/03 05:43:28;;;;;;;20.83;13.73;;;-5.40;99.90;;;;;;5072812;28;20945;-77
2022/03/03 05:45:58;;;;;;;17.67;13.47;;;-5.40;99.90;;;;;;5072810;28;20524;-74
2022/03/03 05:48:29;;;;;;;17.67;12.37;;;-5.40;99.90;;;;;;5072523;28;20457;-74
2022/03/03 05:50:58;;;;;;;21.17;13.77;;;-5.40;99.90;;;;;;5072309;28;20463;-74
2022/03/03 05:53:26;;;;;;;17.40;12.73;;;-5.40;99.90;;;;;;5072960;28;20536;-74
2022/03/03 05:55:56;;;;;;;18.43;12.37;;;-5.30;99.90;;;;;;5072641;28;20537;-74
2022/03/03 05:58:29;;;;;;;18.27;12.63;;;-5.30;99.90;;;;;;5074823;28;20490;-74
2022/03/03 06:01:00;;;;;;;18.20;13.07;;;-5.30;99.90;;;;;;5069383;28;20474;-75
2022/03/03 06:03:30;;;;;;;21.33;13.23;;;-5.30;99.90;;;;;;5069064;28;20936;-75
2022/03/03 06:06:02;;;;;;;18.30;12.93;;;-5.20;99.90;;;;;;5073466;28;20483;-74
2022/03/03 06:08:39;;;;;;;20.93;12.70;;;-5.20;99.90;;;;;;5075048;28;20507;-74
2022/03/03 06:11:14;;;;;;;29.77;19.07;;;-5.20;99.90;;;;;;5074542;28;20437;-76
2022/03/03 06:13:47;;;;;;;21.13;13.83;;;-5.10;99.90;;;;;;5073847;28;20449;-74
2022/03/03 06:16:19;;;;;;;19.70;13.67;;;-5.10;99.90;;;;;;5069093;28;20512;-74
2022/03/03 06:18:50;;;;;;;19.50;12.47;;;-5.10;99.90;;;;;;5074257;28;20449;-77
2022/03/03 06:21:19;;;;;;;18.60;12.27;;;-5.00;99.90;;;;;;5072918;28;20440;-78
2022/03/03 06:23:49;;;;;;;19.00;11.87;;;-4.90;99.90;;;;;;5073302;28;20503;-75
2022/03/03 06:26:19;;;;;;;18.40;11.87;;;-4.90;99.90;;;;;;5072631;28;20515;-76
2022/03/03 06:28:48;;;;;;;20.07;12.20;;;-4.80;99.90;;;;;;5072473;28;20527;-75
2022/03/03 06:31:18;;;;;;;17.57;12.03;;;-4.80;99.90;;;;;;5071777;28;20935;-75
2022/03/03 06:33:46;;;;;;;18.83;11.77;;;-4.70;99.90;;;;;;5056167;28;20452;-76
2022/03/03 06:36:15;;;;;;;15.90;11.73;;;-4.70;99.90;;;;;;5054958;28;20444;-74
2022/03/03 06:38:43;;;;;;;16.87;12.00;;;-4.60;99.90;;;;;;5071323;28;20460;-74
2022/03/03 06:41:11;;;;;;;19.60;12.07;;;-4.60;99.90;;;;;;5073637;28;20534;-75
2022/03/03 06:43:41;;;;;;;21.73;12.20;;;-4.50;99.90;;;;;;5074192;28;20546;-75
2022/03/03 06:46:09;;;;;;;17.83;12.30;;;-4.40;99.90;;;;;;5073544;28;20562;-74
2022/03/03 06:48:39;;;;;;;18.93;12.50;;;-4.30;99.90;;;;;;5071470;28;20464;-75
2022/03/03 06:51:07;;;;;;;16.50;12.37;;;-4.30;99.90;;;;;;5071393;28;20464;-76
2022/03/03 06:53:36;;;;;;;17.73;12.60;;;-4.20;99.90;;;;;;5072837;28;20477;-75
2022/03/03 06:56:06;;;;;;;17.57;12.03;;;-4.10;99.90;;;;;;5072793;28;20474;-74
2022/03/03 06:58:35;;;;;;;17.70;12.10;;;-4.00;99.90;;;;;;5072683;28;20527;-74
2022/03/03 07:01:05;;;;;;;16.67;11.93;;;-3.90;99.90;;;;;;5071561;28;20466;-74
2022/03/03 07:03:34;;;;;;;16.90;11.77;;;-3.90;99.90;;;;;;5070479;28;20445;-76
2022/03/03 07:06:05;;;;;;;15.93;11.60;;;-3.70;99.90;;;;;;5071391;28;20543;-74
2022/03/03 07:08:34;;;;;;;26.73;17.10;;;-3.60;99.90;;;;;;5072047;28;20456;-74
2022/03/03 07:11:02;;;;;;;38.40;23.37;;;-3.50;99.90;;;;;;5073297;28;20476;-76
2022/03/03 07:13:31;;;;;;;25.17;16.23;;;-3.50;99.90;;;;;;5071741;28;20478;-74
2022/03/03 07:16:23;;;;;;;20.47;13.80;;;-3.40;99.90;;;;;;5075036;28;20423;-75
2022/03/03 07:18:52;;;;;;;20.73;13.17;;;-3.20;99.90;;;;;;5072714;28;20425;-75
2022/03/03 07:21:40;;;;;;;18.00;12.53;;;-3.10;99.90;;;;;;5074520;28;20477;-75
2022/03/03 07:24:20;;;;;;;16.63;12.00;;;-3.00;99.90;;;;;;5080218;28;20469;-75
2022/03/03 07:26:49;;;;;;;18.77;12.57;;;-2.90;99.90;;;;;;5084603;28;20480;-75
2022/03/03 07:29:19;;;;;;;17.63;12.40;;;-2.80;99.90;;;;;;5084620;28;20450;-75
2022/03/03 07:31:55;;;;;;;18.87;12.23;;;-2.70;99.90;;;;;;5083554;28;20425;-77
2022/03/03 07:34:29;;;;;;;17.77;12.83;;;-2.50;99.90;;;;;;5079624;28;20463;-76
2022/03/03 07:37:04;;;;;;;20.50;12.83;;;-2.40;99.90;;;;;;5073389;28;20465;-76
2022/03/03 07:39:40;;;;;;;20.47;14.30;;;-2.20;99.90;;;;;;5051594;28;20513;-75
2022/03/03 07:42:12;;;;;;;20.17;14.67;;;-2.00;99.90;;;;;;5051057;28;20999;-76
2022/03/03 07:44:41;;;;;;;21.40;15.00;;;-1.80;99.90;;;;;;5050825;28;20987;-76
2022/03/03 07:47:10;;;;;;;24.77;15.73;;;-1.60;99.90;;;;;;5051826;28;21010;-77
2022/03/03 07:49:40;;;;;;;18.70;13.83;;;-1.40;99.90;;;;;;5057863;28;20453;-77
2022/03/03 07:52:10;;;;;;;20.80;13.47;;;-1.30;99.90;;;;;;5074939;28;20521;-74
2022/03/03 07:54:38;;;;;;;19.93;14.37;;;-1.10;99.90;;;;;;5074956;28;20507;-78
2022/03/03 07:57:14;;;;;;;19.20;14.03;;;-1.10;99.90;;;;;;5074404;28;20503;-76
2022/03/03 07:59:47;;;;;;;24.23;13.97;;;-0.90;99.90;;;;;;5074778;28;20495;-75
2022/03/03 08:02:21;;;;;;;18.63;13.70;;;-0.70;99.90;;;;;;5073561;28;20493;-75
2022/03/03 08:04:51;;;;;;;16.63;13.10;;;-0.60;99.90;;;;;;5074033;28;20458;-74
2022/03/03 08:07:21;;;;;;;19.43;13.50;;;-0.20;99.90;;;;;;5074293;28;20545;-75
2022/03/03 08:09:55;;;;;;;19.63;13.70;;;0.10;99.90;;;;;;5074213;28;21020;-75
2022/03/03 08:12:25;;;;;;;15.70;12.17;;;0.30;99.90;;;;;;5073884;28;20935;-76
2022/03/03 08:15:00;;;;;;;17.00;12.80;;;0.60;99.90;;;;;;5073904;28;20507;-77
2022/03/03 08:17:28;;;;;;;21.23;12.70;;;0.80;99.90;;;;;;5074209;28;20488;-75
2022/03/03 08:19:56;;;;;;;16.00;12.13;;;1.00;99.90;;;;;;5074323;28;20441;-75
2022/03/03 08:22:27;;;;;;;14.33;11.37;;;1.60;99.90;;;;;;5074199;28;20521;-77
2022/03/03 08:24:58;;;;;;;17.87;12.00;;;2.50;99.90;;;;;;5074416;28;22186;-78
2022/03/03 08:27:27;;;;;;;17.83;10.60;;;4.30;99.90;;;;;;5074395;28;20223;-78
2022/03/03 08:30:01;;;;;;;11.80;10.23;;;6.30;99.90;;;;;;5074007;28;20239;-77
2022/03/03 08:32:35;;;;;;;16.17;11.27;;;7.80;97.80;;;;;;5074011;28;20223;-75
2022/03/03 08:35:07;;;;;;;15.53;11.47;;;9.30;92.90;;;;;;5073850;28;20227;-76
2022/03/03 08:37:39;;;;;;;16.40;11.07;;;9.80;91.80;;;;;;5073738;28;20573;-76
2022/03/03 08:40:10;;;;;;;14.57;10.87;;;11.00;87.20;;;;;;5073455;28;20210;-77
2022/03/03 08:42:40;;;;;;;11.57;10.37;;;12.20;82.60;;;;;;5073874;28;20218;-75
2022/03/03 08:45:11;;;;;;;12.60;10.73;;;12.40;80.50;;;;;;5074235;28;20223;-75
2022/03/03 08:47:41;;;;;;;12.37;10.07;;;12.60;77.20;;;;;;5074733;28;20314;-76
2022/03/03 08:50:14;;;;;;;15.07;10.73;;;12.30;77.10;;;;;;5074005;28;20637;-76
2022/03/03 08:52:57;;;;;;;13.17;9.77;;;12.50;77.10;;;;;;5074437;28;20608;-77
2022/03/03 08:55:27;;;;;;;12.83;10.03;;;13.10;75.00;;;;;;5073673;28;20273;-73
2022/03/03 08:57:56;;;;;;;11.47;9.87;;;13.10;72.10;;;;;;5073656;28;20282;-74
2022/03/03 09:00:31;;;;;;;12.97;9.23;;;11.80;73.30;;;;;;5073232;28;20289;-74
2022/03/03 09:03:00;;;;;;;11.93;9.77;;;10.80;77.30;;;;;;5073363;28;20207;-77
2022/03/03 09:05:28;;;;;;;12.63;9.60;;;11.00;77.60;;;;;;5073745;28;20583;-75
2022/03/03 09:07:58;;;;;;;10.80;9.63;;;12.20;75.80;;;;;;5073488;28;20277;-77
2022/03/03 09:10:27;;;;;;;11.53;8.90;;;12.50;76.40;;;;;;5072133;28;20205;-77
2022/03/03 09:12:56;;;;;;;12.87;9.03;;;13.60;72.00;;;;;;5072666;28;20626;-77
2022/03/03 09:15:24;;;;;;;14.37;10.00;;;13.10;70.20;;;;;;5073302;28;20294;-77
2022/03/03 09:17:53;;;;;;;12.73;10.10;;;13.40;69.90;;;;;;5073769;28;20230;-76
2022/03/03 09:20:22;;;;;;;16.50;9.90;;;13.50;73.60;;;;;;5072924;28;20621;-78
2022/03/03 09:22:53;;;;;;;12.87;9.73;;;13.80;72.20;;;;;;5073531;28;20295;-77
2022/03/03 09:25:24;;;;;;;12.87;9.97;;;14.50;69.30;;;;;;5073280;28;20203;-79
2022/03/03 09:27:52;;;;;;;13.87;9.37;;;13.80;69.10;;;;;;5073228;28;20255;-77
2022/03/03 09:30:21;;;;;;;14.73;9.50;;;14.60;68.80;;;;;;5073039;28;20277;-77
2022/03/03 09:32:49;;;;;;;14.73;9.10;;;14.80;66.00;;;;;;5073135;28;20572;-77
2022/03/03 09:35:18;;;;;;;12.83;9.30;;;14.90;65.00;;;;;;5072813;28;20210;-77
2022/03/03 09:37:48;;;;;;;14.47;9.23;;;15.30;62.00;;;;;;5073378;28;20742;-78
2022/03/03 09:40:16;;;;;;;9.70;8.70;;;14.90;62.50;;;;;;5073005;28;20261;-77
2022/03/03 09:42:57;;;;;;;12.77;9.80;;;14.70;62.40;;;;;;5072349;28;20247;-79
2022/03/03 09:45:26;;;;;;;13.33;9.50;;;15.20;64.50;;;;;;5071727;28;20224;-78
2022/03/03 09:47:56;;;;;;;12.00;9.57;;;15.30;63.90;;;;;;5072170;28;20709;-77
2022/03/03 09:50:27;;;;;;;14.70;10.00;;;15.70;60.10;;;;;;5073005;28;20257;-77
2022/03/03 09:52:55;;;;;;;13.03;10.23;;;14.50;63.50;;;;;;5072795;28;20242;-77
2022/03/03 09:55:24;;;;;;;12.70;10.10;;;13.50;67.50;;;;;;5073160;28;20224;-78
2022/03/03 09:57:52;;;;;;;14.50;10.83;;;14.20;65.60;;;;;;5073017;28;20263;-77
2022/03/03 10:00:23;;;;;;;13.67;9.43;;;14.20;65.50;;;;;;5072870;28;20208;-75
2022/03/03 10:02:59;;;;;;;13.43;9.00;;;14.40;63.40;;;;;;5072691;28;20215;-77
2022/03/03 10:05:32;;;;;;;12.63;8.90;;;14.70;60.00;;;;;;5072806;28;20222;-78
2022/03/03 10:08:06;;;;;;;10.50;8.90;;;14.60;60.20;;;;;;5072345;28;20215;-77
2022/03/03 10:10:39;;;;;;;12.13;9.17;;;15.30;60.10;;;;;;5071655;28;20696;-76
2022/03/03 10:13:09;;;;;;;10.10;8.43;;;16.10;56.80;;;;;;5072866;28;20238;-77
2022/03/03 10:15:38;;;;;;;9.83;8.83;;;15.60;57.70;;;;;;5073444;28;20657;-77
2022/03/03 10:18:09;;;;;;;13.10;8.80;;;16.50;56.90;;;;;;5073032;28;20215;-75
2022/03/03 10:20:49;;;;;;;12.15;9.00;;;16.70;57.20;;;;;;5072323;28;20700;-77
2022/03/03 10:23:18;;;;;;;11.75;8.65;;;17.00;55.70;;;;;;5072187;28;20241;-77
2022/03/03 10:25:47;;;;;;;11.18;9.60;;;16.40;54.30;;;;;;5071923;28;20203;-79
2022/03/03 10:28:17;;;;;;;12.80;8.85;;;15.50;57.30;;;;;;5071740;28;20935;-76
2022/03/03 10:30:54;;;;;;;9.43;8.45;;;15.10;56.70;;;;;;5071586;28;20212;-76
2022/03/03 10:33:26;;;;;;;11.15;8.52;;;16.30;55.80;;;;;;5071833;28;20244;-74
2022/03/03 10:36:09;;;;;;;12.32;8.10;;;16.10;50.40;;;;;;5072546;28;20196;-80
2022/03/03 10:38:52;;;;;;;11.48;8.75;;;16.10;50.40;;;;;;5058144;28;20189;-75
2022/03/03 10:41:36;;;;;;;10.35;8.38;;;16.50;49.90;;;;;;5051279;28;20307;-78
2022/03/03 10:44:07;;;;;;;8.73;7.80;;;16.30;50.20;;;;;;5052125;28;20192;-78
2022/03/03 10:46:40;;;;;;;8.55;7.10;;;16.10;50.40;;;;;;5051666;28;20266;-77
2022/03/03 10:49:23;;;;;;;8.60;7.13;;;16.80;44.70;;;;;;5056482;28;20213;-77
2022/03/03 10:51:55;;;;;;;8.43;7.15;;;17.00;45.40;;;;;;5074428;28;20231;-74
2022/03/03 10:54:23;;;;;;;8.52;7.63;;;17.10;42.80;;;;;;5066978;28;20302;-76
2022/03/03 10:57:07;;;;;;;8.73;6.88;;;16.50;45.30;;;;;;5054113;28;20251;-79
2022/03/03 10:59:41;;;;;;;8.50;6.68;;;16.80;43.60;;;;;;5053484;28;20227;-76
2022/03/03 11:02:15;;;;;;;9.13;6.57;;;16.70;44.00;;;;;;5061030;28;20210;-77
2022/03/03 11:04:43;;;;;;;8.63;6.60;;;16.60;41.90;;;;;;5071045;28;20215;-79
2022/03/03 11:07:15;;;;;;;8.40;6.93;;;16.70;41.70;;;;;;5072002;28;20207;-77
2022/03/03 11:09:44;;;;;;;8.88;7.05;;;16.90;42.40;;;;;;5071921;28;20563;-79
2022/03/03 11:12:12;;;;;;;7.93;6.75;;;16.50;41.60;;;;;;5071512;28;20188;-76
2022/03/03 11:14:42;;;;;;;8.43;7.10;;;16.40;41.10;;;;;;5070749;28;20257;-78
2022/03/03 11:17:22;;;;;;;10.00;6.93;;;15.80;41.10;;;;;;5070799;28;20199;-78
2022/03/03 11:19:51;;;;;;;9.23;7.10;;;15.50;43.70;;;;;;5071533;28;20222;-78
2022/03/03 11:22:20;;;;;;;7.93;7.13;;;15.80;43.20;;;;;;5072274;28;20689;-76
2022/03/03 11:24:52;;;;;;;8.47;7.37;;;16.60;45.40;;;;;;5075260;28;20290;-77
2022/03/03 11:27:20;;;;;;;9.23;6.67;;;16.50;43.10;;;;;;5074775;28;20294;-77
2022/03/03 11:30:13;;;;;;;8.43;6.90;;;15.90;42.80;;;;;;5074422;28;20217;-77
2022/03/03 11:32:43;;;;;;;7.80;7.00;;;15.70;42.70;;;;;;5074010;28;20200;-78
2022/03/03 11:35:13;;;;;;;10.97;7.07;;;15.80;42.80;;;;;;5075108;28;20280;-78
2022/03/03 11:37:43;;;;;;;9.90;7.07;;;15.10;44.80;;;;;;5074572;28;20219;-77
2022/03/03 11:40:13;;;;;;;7.80;7.00;;;15.10;45.90;;;;;;5074762;28;20290;-77
2022/03/03 11:42:49;;;;;;;11.70;8.57;;;15.20;46.40;;;;;;5074804;28;20207;-78
2022/03/03 11:45:20;;;;;;;11.47;8.33;;;14.40;46.40;;;;;;5074734;28;20260;-75
2022/03/03 11:47:50;;;;;;;12.37;8.20;;;14.90;46.80;;;;;;5074858;28;20202;-75
2022/03/03 11:50:24;;;;;;;9.00;7.87;;;15.10;48.00;;;;;;5074425;28;20211;-76
2022/03/03 11:52:54;;;;;;;8.83;7.50;;;15.60;45.30;;;;;;5067718;28;20218;-78
2022/03/03 11:55:28;;;;;;;8.20;7.03;;;15.20;46.40;;;;;;5054387;28;20729;-77
2022/03/03 11:58:00;;;;;;;10.17;7.43;;;15.10;44.40;;;;;;5070289;28;20649;-76
2022/03/03 12:00:30;;;;;;;10.17;7.23;;;14.30;45.60;;;;;;5074482;28;20203;-77
2022/03/03 12:03:03;;;;;;;9.30;7.13;;;14.20;46.20;;;;;;5074126;28;20668;-77
2022/03/03 12:05:42;;;;;;;8.60;7.47;;;13.60;46.80;;;;;;5074338;28;20249;-76
2022/03/03 12:08:34;;;;;;;8.30;7.40;;;13.70;46.20;;;;;;5074262;28;20223;-77
2022/03/03 12:11:08;;;;;;;10.87;7.60;;;13.20;46.20;;;;;;5074182;28;20649;-77
2022/03/03 12:13:45;;;;;;;8.80;6.50;;;13.20;46.80;;;;;;5074564;28;20202;-77
2022/03/03 12:16:26;;;;;;;9.10;7.20;;;12.80;45.30;;;;;;5068644;28;20199;-77
2022/03/03 12:19:14;;;;;;;12.00;7.57;;;12.40;47.20;;;;;;5074713;28;20222;-77
2022/03/03 12:21:44;;;;;;;10.20;7.80;;;12.50;48.50;;;;;;5074202;28;20219;-76
2022/03/03 12:24:32;;;;;;;10.70;8.47;;;12.20;49.30;;;;;;5074024;28;20234;-78
2022/03/03 12:27:16;;;;;;;10.57;7.93;;;12.50;49.00;;;;;;5073893;28;20215;-77
2022/03/03 12:29:52;;;;;;;11.03;7.77;;;11.60;47.70;;;;;;5074209;28;20212;-76
2022/03/03 12:32:42;;;;;;;11.17;7.90;;;11.30;49.10;;;;;;5074066;28;20565;-78
2022/03/03 12:35:22;;;;;;;10.70;7.90;;;11.60;49.40;;;;;;5074193;28;20211;-77
2022/03/03 12:37:51;;;;;;;9.60;8.10;;;11.30;49.50;;;;;;5073315;28;20238;-77
2022/03/03 12:40:22;;;;;;;10.57;7.90;;;11.20;48.20;;;;;;5073771;28;20290;-77
2022/03/03 12:42:50;;;;;;;11.87;8.00;;;11.10;50.70;;;;;;5073827;28;20207;-77
2022/03/03 12:45:20;;;;;;;9.97;7.80;;;11.20;49.90;;;;;;5073966;28;20298;-77
2022/03/03 12:47:53;;;;;;;8.57;7.07;;;11.20;48.60;;;;;;5074004;28;20207;-76
2022/03/03 12:50:28;;;;;;;13.03;7.33;;;11.30;47.40;;;;;;5073517;28;20634;-77